sensor_id;sensor_type;location;lat;lon;timestamp;P1;durP1;ratioP1;P2;durP2;ratioP2
15643;SDS011;7921;43.586;1.408;2022-08-19T00:01:34;3.63;;;3.10;;
15643;SDS011;7921;43.586;1.408;2022-08-19T00:04:02;3.88;;;3.45;;
15643;SDS011;7921;43.586;1.408;2022-08-19T00:06:29;3.28;;;2.97;;
15643;SDS011;7921;43.586;1.408;2022-08-19T00:08:54;3.70;;;3.40;;
15643;SDS011;7921;43.586;1.408;2022-08-19T00:11:20;3.90;;;3.50;;
15643;SDS011;7921;43.586;1.408;2022-08-19T00:13:46;4.30;;;3.03;;
15643;SDS011;7921;43.586;1.408;2022-08-19T00:16:13;4.13;;;3.40;;
15643;SDS011;7921;43.586;1.408;2022-08-19T00:18:39;3.75;;;3.45;;
15643;SDS011;7921;43.586;1.408;2022-08-19T00:21:05;4.75;;;3.53;;
15643;SDS011;7921;43.586;1.408;2022-08-19T00:23:32;3.38;;;3.08;;
15643;SDS011;7921;43.586;1.408;2022-08-19T00:25:59;4.55;;;3.30;;
15643;SDS011;7921;43.586;1.408;2022-08-19T00:28:25;4.90;;;3.90;;
15643;SDS011;7921;43.586;1.408;2022-08-19T00:30:50;3.75;;;3.30;;
15643;SDS011;7921;43.586;1.408;2022-08-19T00:33:18;4.00;;;3.47;;
15643;SDS011;7921;43.586;1.408;2022-08-19T00:35:44;4.13;;;3.20;;
15643;SDS011;7921;43.586;1.408;2022-08-19T00:38:09;3.70;;;3.40;;
15643;SDS011;7921;43.586;1.408;2022-08-19T00:40:34;3.92;;;3.53;;
15643;SDS011;7921;43.586;1.408;2022-08-19T00:43:00;4.20;;;3.80;;
15643;SDS011;7921;43.586;1.408;2022-08-19T00:45:26;3.80;;;3.50;;
15643;SDS011;7921;43.586;1.408;2022-08-19T00:47:57;4.10;;;3.70;;
15643;SDS011;7921;43.586;1.408;2022-08-19T00:50:22;4.70;;;3.53;;
15643;SDS011;7921;43.586;1.408;2022-08-19T00:52:48;4.65;;;3.97;;
15643;SDS011;7921;43.586;1.408;2022-08-19T00:55:18;3.97;;;3.65;;
15643;SDS011;7921;43.586;1.408;2022-08-19T00:57:52;4.18;;;3.65;;
15643;SDS011;7921;43.586;1.408;2022-08-19T01:00:24;3.97;;;3.60;;
15643;SDS011;7921;43.586;1.408;2022-08-19T01:02:51;4.40;;;3.75;;
15643;SDS011;7921;43.586;1.408;2022-08-19T01:05:19;5.15;;;3.42;;
15643;SDS011;7921;43.586;1.408;2022-08-19T01:07:47;6.18;;;3.88;;
15643;SDS011;7921;43.586;1.408;2022-08-19T01:10:14;3.97;;;3.50;;
15643;SDS011;7921;43.586;1.408;2022-08-19T01:12:41;3.90;;;3.50;;
15643;SDS011;7921;43.586;1.408;2022-08-19T01:15:07;5.00;;;4.00;;
15643;SDS011;7921;43.586;1.408;2022-08-19T01:17:34;6.22;;;4.25;;
15643;SDS011;7921;43.586;1.408;2022-08-19T01:20:02;4.85;;;3.97;;
15643;SDS011;7921;43.586;1.408;2022-08-19T01:22:37;4.30;;;3.65;;
15643;SDS011;7921;43.586;1.408;2022-08-19T01:25:08;5.05;;;3.90;;
15643;SDS011;7921;43.586;1.408;2022-08-19T01:27:40;4.28;;;3.60;;
15643;SDS011;7921;43.586;1.408;2022-08-19T01:30:08;6.38;;;4.20;;
15643;SDS011;7921;43.586;1.408;2022-08-19T01:32:35;3.95;;;3.53;;
15643;SDS011;7921;43.586;1.408;2022-08-19T01:35:02;4.13;;;3.72;;
15643;SDS011;7921;43.586;1.408;2022-08-19T01:37:28;5.30;;;3.92;;
15643;SDS011;7921;43.586;1.408;2022-08-19T01:39:55;5.35;;;3.90;;
15643;SDS011;7921;43.586;1.408;2022-08-19T01:42:20;5.43;;;4.03;;
15643;SDS011;7921;43.586;1.408;2022-08-19T01:44:47;4.13;;;3.63;;
15643;SDS011;7921;43.586;1.408;2022-08-19T01:47:12;4.30;;;3.97;;
15643;SDS011;7921;43.586;1.408;2022-08-19T01:49:38;4.00;;;3.60;;
15643;SDS011;7921;43.586;1.408;2022-08-19T01:52:04;5.97;;;4.00;;
15643;SDS011;7921;43.586;1.408;2022-08-19T01:54:30;4.18;;;3.85;;
15643;SDS011;7921;43.586;1.408;2022-08-19T01:57:06;6.03;;;4.40;;
15643;SDS011;7921;43.586;1.408;2022-08-19T01:59:34;4.72;;;4.13;;
15643;SDS011;7921;43.586;1.408;2022-08-19T02:02:01;5.03;;;3.95;;
15643;SDS011;7921;43.586;1.408;2022-08-19T02:04:29;4.07;;;3.67;;
15643;SDS011;7921;43.586;1.408;2022-08-19T02:06:54;5.63;;;3.80;;
15643;SDS011;7921;43.586;1.408;2022-08-19T02:09:19;4.18;;;3.70;;
15643;SDS011;7921;43.586;1.408;2022-08-19T02:11:45;4.40;;;4.00;;
15643;SDS011;7921;43.586;1.408;2022-08-19T02:14:10;5.47;;;4.22;;
15643;SDS011;7921;43.586;1.408;2022-08-19T02:16:36;4.35;;;3.95;;
15643;SDS011;7921;43.586;1.408;2022-08-19T02:19:02;5.80;;;3.83;;
15643;SDS011;7921;43.586;1.408;2022-08-19T02:21:29;4.47;;;3.50;;
15643;SDS011;7921;43.586;1.408;2022-08-19T02:23:55;5.25;;;4.20;;
15643;SDS011;7921;43.586;1.408;2022-08-19T02:26:20;3.90;;;3.50;;
15643;SDS011;7921;43.586;1.408;2022-08-19T02:28:46;6.25;;;4.07;;
15643;SDS011;7921;43.586;1.408;2022-08-19T02:31:14;4.10;;;3.60;;
15643;SDS011;7921;43.586;1.408;2022-08-19T02:33:44;4.43;;;3.65;;
15643;SDS011;7921;43.586;1.408;2022-08-19T02:36:11;4.50;;;3.97;;
15643;SDS011;7921;43.586;1.408;2022-08-19T02:38:38;3.92;;;3.58;;
15643;SDS011;7921;43.586;1.408;2022-08-19T02:41:05;4.55;;;4.15;;
15643;SDS011;7921;43.586;1.408;2022-08-19T02:43:34;5.43;;;3.75;;
15643;SDS011;7921;43.586;1.408;2022-08-19T02:46:10;5.65;;;3.95;;
15643;SDS011;7921;43.586;1.408;2022-08-19T02:48:39;4.40;;;3.85;;
15643;SDS011;7921;43.586;1.408;2022-08-19T02:51:04;4.78;;;3.95;;
15643;SDS011;7921;43.586;1.408;2022-08-19T02:53:30;4.45;;;3.92;;
15643;SDS011;7921;43.586;1.408;2022-08-19T02:55:56;5.50;;;3.90;;
15643;SDS011;7921;43.586;1.408;2022-08-19T02:58:22;4.57;;;4.18;;
15643;SDS011;7921;43.586;1.408;2022-08-19T03:00:49;5.43;;;3.88;;
15643;SDS011;7921;43.586;1.408;2022-08-19T03:03:17;4.65;;;3.80;;
15643;SDS011;7921;43.586;1.408;2022-08-19T03:05:43;4.97;;;3.85;;
15643;SDS011;7921;43.586;1.408;2022-08-19T03:08:09;6.45;;;4.13;;
15643;SDS011;7921;43.586;1.408;2022-08-19T03:10:44;6.28;;;3.70;;
15643;SDS011;7921;43.586;1.408;2022-08-19T03:13:12;4.78;;;3.90;;
15643;SDS011;7921;43.586;1.408;2022-08-19T03:15:39;6.45;;;3.92;;
15643;SDS011;7921;43.586;1.408;2022-08-19T03:18:05;5.82;;;3.60;;
15643;SDS011;7921;43.586;1.408;2022-08-19T03:20:31;4.85;;;3.92;;
15643;SDS011;7921;43.586;1.408;2022-08-19T03:22:56;5.32;;;3.90;;
15643;SDS011;7921;43.586;1.408;2022-08-19T03:25:22;4.97;;;3.90;;
15643;SDS011;7921;43.586;1.408;2022-08-19T03:27:47;3.70;;;3.35;;
15643;SDS011;7921;43.586;1.408;2022-08-19T03:30:13;6.65;;;4.05;;
15643;SDS011;7921;43.586;1.408;2022-08-19T03:32:39;4.22;;;3.20;;
15643;SDS011;7921;43.586;1.408;2022-08-19T03:35:04;5.97;;;3.95;;
15643;SDS011;7921;43.586;1.408;2022-08-19T03:37:30;4.43;;;3.50;;
15643;SDS011;7921;43.586;1.408;2022-08-19T03:39:56;5.35;;;3.97;;
15643;SDS011;7921;43.586;1.408;2022-08-19T03:42:21;6.43;;;3.80;;
15643;SDS011;7921;43.586;1.408;2022-08-19T03:44:46;6.47;;;4.07;;
15643;SDS011;7921;43.586;1.408;2022-08-19T03:47:12;4.90;;;3.40;;
15643;SDS011;7921;43.586;1.408;2022-08-19T03:49:41;3.67;;;3.03;;
15643;SDS011;7921;43.586;1.408;2022-08-19T03:52:07;4.85;;;3.58;;
15643;SDS011;7921;43.586;1.408;2022-08-19T03:54:33;4.32;;;3.80;;
15643;SDS011;7921;43.586;1.408;2022-08-19T03:56:58;6.18;;;3.22;;
15643;SDS011;7921;43.586;1.408;2022-08-19T03:59:29;4.88;;;3.50;;
15643;SDS011;7921;43.586;1.408;2022-08-19T04:01:57;3.95;;;3.22;;
15643;SDS011;7921;43.586;1.408;2022-08-19T04:04:24;6.57;;;4.20;;
15643;SDS011;7921;43.586;1.408;2022-08-19T04:06:50;4.75;;;3.28;;
15643;SDS011;7921;43.586;1.408;2022-08-19T04:09:16;3.83;;;3.42;;
15643;SDS011;7921;43.586;1.408;2022-08-19T04:11:44;5.25;;;3.33;;
15643;SDS011;7921;43.586;1.408;2022-08-19T04:14:15;4.38;;;3.33;;
15643;SDS011;7921;43.586;1.408;2022-08-19T04:16:43;4.60;;;3.13;;
15643;SDS011;7921;43.586;1.408;2022-08-19T04:19:09;3.40;;;3.10;;
15643;SDS011;7921;43.586;1.408;2022-08-19T04:21:35;6.82;;;3.90;;
15643;SDS011;7921;43.586;1.408;2022-08-19T04:24:00;3.70;;;3.10;;
15643;SDS011;7921;43.586;1.408;2022-08-19T04:26:28;4.10;;;3.17;;
15643;SDS011;7921;43.586;1.408;2022-08-19T04:29:03;4.85;;;4.15;;
15643;SDS011;7921;43.586;1.408;2022-08-19T04:31:31;4.50;;;3.28;;
15643;SDS011;7921;43.586;1.408;2022-08-19T04:34:00;5.00;;;3.30;;
15643;SDS011;7921;43.586;1.408;2022-08-19T04:36:29;4.38;;;3.65;;
15643;SDS011;7921;43.586;1.408;2022-08-19T04:38:56;3.50;;;2.83;;
15643;SDS011;7921;43.586;1.408;2022-08-19T04:41:25;3.70;;;2.95;;
15643;SDS011;7921;43.586;1.408;2022-08-19T04:44:10;3.72;;;3.20;;
15643;SDS011;7921;43.586;1.408;2022-08-19T04:46:36;6.00;;;3.40;;
15643;SDS011;7921;43.586;1.408;2022-08-19T04:49:02;6.80;;;2.90;;
15643;SDS011;7921;43.586;1.408;2022-08-19T04:51:30;4.53;;;3.25;;
15643;SDS011;7921;43.586;1.408;2022-08-19T04:53:56;7.00;;;3.40;;
15643;SDS011;7921;43.586;1.408;2022-08-19T04:56:21;6.07;;;4.30;;
15643;SDS011;7921;43.586;1.408;2022-08-19T04:58:47;5.00;;;3.15;;
15643;SDS011;7921;43.586;1.408;2022-08-19T05:01:19;5.35;;;3.55;;
15643;SDS011;7921;43.586;1.408;2022-08-19T05:03:47;3.47;;;3.17;;
15643;SDS011;7921;43.586;1.408;2022-08-19T05:06:13;4.78;;;3.50;;
15643;SDS011;7921;43.586;1.408;2022-08-19T05:08:40;3.58;;;3.28;;
15643;SDS011;7921;43.586;1.408;2022-08-19T05:11:16;3.38;;;2.95;;
15643;SDS011;7921;43.586;1.408;2022-08-19T05:13:43;5.70;;;3.45;;
15643;SDS011;7921;43.586;1.408;2022-08-19T05:16:10;4.40;;;3.13;;
15643;SDS011;7921;43.586;1.408;2022-08-19T05:18:36;3.92;;;3.53;;
15643;SDS011;7921;43.586;1.408;2022-08-19T05:21:21;3.90;;;3.45;;
15643;SDS011;7921;43.586;1.408;2022-08-19T05:24:05;4.80;;;3.45;;
15643;SDS011;7921;43.586;1.408;2022-08-19T05:26:37;4.75;;;3.45;;
15643;SDS011;7921;43.586;1.408;2022-08-19T05:29:04;5.22;;;3.05;;
15643;SDS011;7921;43.586;1.408;2022-08-19T05:31:30;5.15;;;3.50;;
15643;SDS011;7921;43.586;1.408;2022-08-19T05:33:56;4.18;;;3.10;;
15643;SDS011;7921;43.586;1.408;2022-08-19T05:36:23;3.78;;;3.40;;
15643;SDS011;7921;43.586;1.408;2022-08-19T05:38:50;4.38;;;3.05;;
15643;SDS011;7921;43.586;1.408;2022-08-19T05:41:17;4.65;;;3.42;;
15643;SDS011;7921;43.586;1.408;2022-08-19T05:43:42;3.78;;;3.33;;
15643;SDS011;7921;43.586;1.408;2022-08-19T05:46:07;4.35;;;3.42;;
15643;SDS011;7921;43.586;1.408;2022-08-19T05:48:34;4.45;;;3.78;;
15643;SDS011;7921;43.586;1.408;2022-08-19T05:51:06;4.00;;;3.00;;
15643;SDS011;7921;43.586;1.408;2022-08-19T05:53:33;4.82;;;3.58;;
15643;SDS011;7921;43.586;1.408;2022-08-19T05:56:05;5.88;;;3.15;;
15643;SDS011;7921;43.586;1.408;2022-08-19T05:58:31;6.28;;;3.35;;
15643;SDS011;7921;43.586;1.408;2022-08-19T06:00:58;5.78;;;4.07;;
15643;SDS011;7921;43.586;1.408;2022-08-19T06:03:29;6.10;;;3.75;;
15643;SDS011;7921;43.586;1.408;2022-08-19T06:05:55;4.28;;;3.22;;
15643;SDS011;7921;43.586;1.408;2022-08-19T06:08:20;7.28;;;3.80;;
15643;SDS011;7921;43.586;1.408;2022-08-19T06:10:46;8.25;;;4.15;;
15643;SDS011;7921;43.586;1.408;2022-08-19T06:13:11;5.68;;;3.97;;
15643;SDS011;7921;43.586;1.408;2022-08-19T06:15:36;9.30;;;3.72;;
15643;SDS011;7921;43.586;1.408;2022-08-19T06:18:02;5.88;;;3.33;;
15643;SDS011;7921;43.586;1.408;2022-08-19T06:20:28;4.70;;;3.65;;
15643;SDS011;7921;43.586;1.408;2022-08-19T06:22:54;4.97;;;3.92;;
15643;SDS011;7921;43.586;1.408;2022-08-19T06:25:19;3.67;;;3.38;;
15643;SDS011;7921;43.586;1.408;2022-08-19T06:27:45;4.80;;;3.35;;
15643;SDS011;7921;43.586;1.408;2022-08-19T06:30:11;6.40;;;3.80;;
15643;SDS011;7921;43.586;1.408;2022-08-19T06:32:37;5.40;;;3.35;;
15643;SDS011;7921;43.586;1.408;2022-08-19T06:35:02;4.80;;;3.80;;
15643;SDS011;7921;43.586;1.408;2022-08-19T06:37:29;5.10;;;3.38;;
15643;SDS011;7921;43.586;1.408;2022-08-19T06:39:54;6.22;;;3.45;;
15643;SDS011;7921;43.586;1.408;2022-08-19T06:42:20;4.45;;;3.30;;
15643;SDS011;7921;43.586;1.408;2022-08-19T06:44:46;7.25;;;4.00;;
15643;SDS011;7921;43.586;1.408;2022-08-19T06:47:16;3.95;;;2.75;;
15643;SDS011;7921;43.586;1.408;2022-08-19T06:49:42;4.43;;;3.38;;
15643;SDS011;7921;43.586;1.408;2022-08-19T06:52:08;4.00;;;3.25;;
15643;SDS011;7921;43.586;1.408;2022-08-19T06:54:33;4.88;;;3.20;;
15643;SDS011;7921;43.586;1.408;2022-08-19T06:56:59;4.53;;;3.00;;
15643;SDS011;7921;43.586;1.408;2022-08-19T06:59:29;4.53;;;3.03;;
15643;SDS011;7921;43.586;1.408;2022-08-19T07:01:57;5.63;;;3.47;;
15643;SDS011;7921;43.586;1.408;2022-08-19T07:04:25;5.35;;;3.30;;
15643;SDS011;7921;43.586;1.408;2022-08-19T07:06:57;4.93;;;2.83;;
15643;SDS011;7921;43.586;1.408;2022-08-19T07:09:24;4.72;;;3.03;;
15643;SDS011;7921;43.586;1.408;2022-08-19T07:11:50;3.83;;;2.83;;
15643;SDS011;7921;43.586;1.408;2022-08-19T07:14:19;3.53;;;3.20;;
15643;SDS011;7921;43.586;1.408;2022-08-19T07:16:47;4.22;;;2.90;;
15643;SDS011;7921;43.586;1.408;2022-08-19T07:19:14;5.85;;;3.13;;
15643;SDS011;7921;43.586;1.408;2022-08-19T07:21:39;4.40;;;3.10;;
15643;SDS011;7921;43.586;1.408;2022-08-19T07:24:06;3.55;;;3.03;;
15643;SDS011;7921;43.586;1.408;2022-08-19T07:26:32;4.05;;;2.90;;
15643;SDS011;7921;43.586;1.408;2022-08-19T07:28:58;5.97;;;2.90;;
15643;SDS011;7921;43.586;1.408;2022-08-19T07:31:27;4.30;;;3.10;;
15643;SDS011;7921;43.586;1.408;2022-08-19T07:33:53;4.85;;;3.30;;
15643;SDS011;7921;43.586;1.408;2022-08-19T07:36:21;4.85;;;3.28;;
15643;SDS011;7921;43.586;1.408;2022-08-19T07:38:49;3.45;;;2.80;;
15643;SDS011;7921;43.586;1.408;2022-08-19T07:41:20;4.03;;;2.88;;
15643;SDS011;7921;43.586;1.408;2022-08-19T07:43:47;5.75;;;2.47;;
15643;SDS011;7921;43.586;1.408;2022-08-19T07:46:14;4.82;;;3.20;;
15643;SDS011;7921;43.586;1.408;2022-08-19T07:48:41;4.10;;;2.60;;
15643;SDS011;7921;43.586;1.408;2022-08-19T07:51:07;5.30;;;2.80;;
15643;SDS011;7921;43.586;1.408;2022-08-19T07:53:34;5.75;;;3.05;;
15643;SDS011;7921;43.586;1.408;2022-08-19T07:56:01;5.50;;;3.00;;
15643;SDS011;7921;43.586;1.408;2022-08-19T07:58:31;4.07;;;2.45;;
15643;SDS011;7921;43.586;1.408;2022-08-19T08:00:59;3.92;;;2.95;;
15643;SDS011;7921;43.586;1.408;2022-08-19T08:03:25;3.65;;;2.58;;
15643;SDS011;7921;43.586;1.408;2022-08-19T08:06:10;8.02;;;2.65;;
15643;SDS011;7921;43.586;1.408;2022-08-19T08:08:54;4.50;;;2.60;;
15643;SDS011;7921;43.586;1.408;2022-08-19T08:11:45;4.32;;;2.55;;
15643;SDS011;7921;43.586;1.408;2022-08-19T08:14:17;3.38;;;2.83;;
15643;SDS011;7921;43.586;1.408;2022-08-19T08:16:47;4.97;;;2.30;;
15643;SDS011;7921;43.586;1.408;2022-08-19T08:19:16;4.65;;;2.50;;
15643;SDS011;7921;43.586;1.408;2022-08-19T08:21:43;3.60;;;2.58;;
15643;SDS011;7921;43.586;1.408;2022-08-19T08:24:09;2.97;;;2.67;;
15643;SDS011;7921;43.586;1.408;2022-08-19T08:26:35;2.80;;;2.25;;
15643;SDS011;7921;43.586;1.408;2022-08-19T08:29:00;4.32;;;2.47;;
15643;SDS011;7921;43.586;1.408;2022-08-19T08:31:26;3.92;;;2.65;;
15643;SDS011;7921;43.586;1.408;2022-08-19T08:33:51;4.95;;;2.40;;
15643;SDS011;7921;43.586;1.408;2022-08-19T08:36:17;4.45;;;2.50;;
15643;SDS011;7921;43.586;1.408;2022-08-19T08:38:43;4.13;;;2.83;;
15643;SDS011;7921;43.586;1.408;2022-08-19T08:41:18;3.65;;;2.83;;
15643;SDS011;7921;43.586;1.408;2022-08-19T08:43:56;2.33;;;1.98;;
15643;SDS011;7921;43.586;1.408;2022-08-19T08:46:27;2.70;;;2.22;;
15643;SDS011;7921;43.586;1.408;2022-08-19T08:49:06;3.42;;;2.40;;
15643;SDS011;7921;43.586;1.408;2022-08-19T08:51:40;2.85;;;2.30;;
15643;SDS011;7921;43.586;1.408;2022-08-19T08:54:10;2.42;;;1.90;;
15643;SDS011;7921;43.586;1.408;2022-08-19T08:56:41;4.35;;;2.25;;
15643;SDS011;7921;43.586;1.408;2022-08-19T08:59:10;2.35;;;2.13;;
15643;SDS011;7921;43.586;1.408;2022-08-19T09:01:42;2.33;;;2.13;;
15643;SDS011;7921;43.586;1.408;2022-08-19T09:04:07;2.85;;;1.85;;
15643;SDS011;7921;43.586;1.408;2022-08-19T09:06:37;2.50;;;2.25;;
15643;SDS011;7921;43.586;1.408;2022-08-19T09:09:33;2.97;;;2.13;;
15643;SDS011;7921;43.586;1.408;2022-08-19T09:12:09;3.22;;;2.20;;
15643;SDS011;7921;43.586;1.408;2022-08-19T09:17:14;3.72;;;2.42;;
15643;SDS011;7921;43.586;1.408;2022-08-19T09:19:48;3.25;;;2.38;;
15643;SDS011;7921;43.586;1.408;2022-08-19T09:22:19;3.63;;;2.00;;
15643;SDS011;7921;43.586;1.408;2022-08-19T09:24:47;3.85;;;2.58;;
15643;SDS011;7921;43.586;1.408;2022-08-19T09:27:13;3.22;;;2.45;;
15643;SDS011;7921;43.586;1.408;2022-08-19T09:29:39;3.13;;;2.05;;
15643;SDS011;7921;43.586;1.408;2022-08-19T09:32:04;3.67;;;2.78;;
15643;SDS011;7921;43.586;1.408;2022-08-19T09:34:31;3.95;;;2.30;;
15643;SDS011;7921;43.586;1.408;2022-08-19T09:36:57;3.33;;;2.28;;
15643;SDS011;7921;43.586;1.408;2022-08-19T09:39:23;3.58;;;2.75;;
15643;SDS011;7921;43.586;1.408;2022-08-19T09:41:49;3.72;;;2.80;;
15643;SDS011;7921;43.586;1.408;2022-08-19T09:44:15;3.88;;;3.30;;
15643;SDS011;7921;43.586;1.408;2022-08-19T09:46:40;3.65;;;2.95;;
15643;SDS011;7921;43.586;1.408;2022-08-19T09:49:06;3.45;;;2.72;;
15643;SDS011;7921;43.586;1.408;2022-08-19T09:51:31;5.95;;;2.90;;
15643;SDS011;7921;43.586;1.408;2022-08-19T09:54:01;4.45;;;3.33;;
15643;SDS011;7921;43.586;1.408;2022-08-19T09:56:27;2.90;;;2.70;;
15643;SDS011;7921;43.586;1.408;2022-08-19T09:58:53;2.97;;;2.55;;
15643;SDS011;7921;43.586;1.408;2022-08-19T10:01:20;4.10;;;2.80;;
15643;SDS011;7921;43.586;1.408;2022-08-19T10:03:48;3.67;;;3.10;;
15643;SDS011;7921;43.586;1.408;2022-08-19T10:06:16;2.88;;;2.53;;
15643;SDS011;7921;43.586;1.408;2022-08-19T10:08:42;3.58;;;2.83;;
15643;SDS011;7921;43.586;1.408;2022-08-19T10:11:07;3.55;;;2.63;;
15643;SDS011;7921;43.586;1.408;2022-08-19T10:13:33;4.70;;;2.60;;
15643;SDS011;7921;43.586;1.408;2022-08-19T10:16:07;2.97;;;2.25;;
15643;SDS011;7921;43.586;1.408;2022-08-19T10:18:35;3.08;;;2.45;;
15643;SDS011;7921;43.586;1.408;2022-08-19T10:21:09;3.00;;;2.47;;
15643;SDS011;7921;43.586;1.408;2022-08-19T10:23:41;3.20;;;2.40;;
15643;SDS011;7921;43.586;1.408;2022-08-19T10:26:10;2.10;;;2.00;;
15643;SDS011;7921;43.586;1.408;2022-08-19T10:28:36;2.97;;;2.33;;
15643;SDS011;7921;43.586;1.408;2022-08-19T10:31:16;2.42;;;2.25;;
15643;SDS011;7921;43.586;1.408;2022-08-19T10:33:44;2.97;;;2.53;;
15643;SDS011;7921;43.586;1.408;2022-08-19T10:36:12;4.90;;;2.65;;
15643;SDS011;7921;43.586;1.408;2022-08-19T10:38:40;3.20;;;2.33;;
15643;SDS011;7921;43.586;1.408;2022-08-19T10:41:10;3.15;;;2.58;;
15643;SDS011;7921;43.586;1.408;2022-08-19T10:43:37;3.35;;;2.55;;
15643;SDS011;7921;43.586;1.408;2022-08-19T10:46:05;2.92;;;2.50;;
15643;SDS011;7921;43.586;1.408;2022-08-19T10:48:34;4.57;;;2.30;;
15643;SDS011;7921;43.586;1.408;2022-08-19T10:51:00;4.35;;;2.33;;
15643;SDS011;7921;43.586;1.408;2022-08-19T10:53:44;2.55;;;2.13;;
15643;SDS011;7921;43.586;1.408;2022-08-19T10:56:10;3.00;;;2.47;;
15643;SDS011;7921;43.586;1.408;2022-08-19T10:58:54;2.63;;;2.42;;
15643;SDS011;7921;43.586;1.408;2022-08-19T11:01:22;2.65;;;2.45;;
15643;SDS011;7921;43.586;1.408;2022-08-19T11:03:47;2.55;;;2.20;;
15643;SDS011;7921;43.586;1.408;2022-08-19T11:06:12;3.28;;;2.40;;
15643;SDS011;7921;43.586;1.408;2022-08-19T11:08:38;3.25;;;2.53;;
15643;SDS011;7921;43.586;1.408;2022-08-19T11:11:04;2.70;;;2.25;;
15643;SDS011;7921;43.586;1.408;2022-08-19T11:13:32;2.50;;;2.30;;
15643;SDS011;7921;43.586;1.408;2022-08-19T11:16:05;2.75;;;2.55;;
15643;SDS011;7921;43.586;1.408;2022-08-19T11:18:34;3.20;;;2.20;;
15643;SDS011;7921;43.586;1.408;2022-08-19T11:21:06;2.40;;;2.05;;
15643;SDS011;7921;43.586;1.408;2022-08-19T11:23:53;2.47;;;2.28;;
15643;SDS011;7921;43.586;1.408;2022-08-19T11:26:21;2.95;;;2.20;;
15643;SDS011;7921;43.586;1.408;2022-08-19T11:28:46;3.08;;;2.20;;
15643;SDS011;7921;43.586;1.408;2022-08-19T11:31:13;2.42;;;2.20;;
15643;SDS011;7921;43.586;1.408;2022-08-19T11:33:40;2.03;;;1.83;;
15643;SDS011;7921;43.586;1.408;2022-08-19T11:36:06;2.50;;;2.13;;
15643;SDS011;7921;43.586;1.408;2022-08-19T11:38:32;1.90;;;1.80;;
15643;SDS011;7921;43.586;1.408;2022-08-19T11:41:00;2.75;;;2.40;;
15643;SDS011;7921;43.586;1.408;2022-08-19T11:43:27;2.35;;;1.95;;
15643;SDS011;7921;43.586;1.408;2022-08-19T11:45:53;2.25;;;2.05;;
15643;SDS011;7921;43.586;1.408;2022-08-19T11:48:20;3.47;;;1.90;;
15643;SDS011;7921;43.586;1.408;2022-08-19T11:50:50;2.65;;;2.22;;
15643;SDS011;7921;43.586;1.408;2022-08-19T11:53:17;2.30;;;1.92;;
15643;SDS011;7921;43.586;1.408;2022-08-19T11:55:45;1.80;;;1.70;;
15643;SDS011;7921;43.586;1.408;2022-08-19T11:58:14;2.40;;;2.03;;
15643;SDS011;7921;43.586;1.408;2022-08-19T12:00:40;2.28;;;2.08;;
15643;SDS011;7921;43.586;1.408;2022-08-19T12:03:06;2.10;;;1.90;;
15643;SDS011;7921;43.586;1.408;2022-08-19T12:05:32;2.30;;;2.10;;
15643;SDS011;7921;43.586;1.408;2022-08-19T12:07:58;2.40;;;2.20;;
15643;SDS011;7921;43.586;1.408;2022-08-19T12:10:23;2.35;;;2.10;;
15643;SDS011;7921;43.586;1.408;2022-08-19T12:12:49;2.15;;;1.98;;
15643;SDS011;7921;43.586;1.408;2022-08-19T12:15:14;2.28;;;1.98;;
15643;SDS011;7921;43.586;1.408;2022-08-19T12:17:40;2.30;;;2.10;;
15643;SDS011;7921;43.586;1.408;2022-08-19T12:20:07;2.28;;;2.05;;
15643;SDS011;7921;43.586;1.408;2022-08-19T12:22:36;2.92;;;2.20;;
15643;SDS011;7921;43.586;1.408;2022-08-19T12:25:03;2.65;;;2.10;;
15643;SDS011;7921;43.586;1.408;2022-08-19T12:27:29;3.22;;;2.08;;
15643;SDS011;7921;43.586;1.408;2022-08-19T12:29:55;2.63;;;2.40;;
15643;SDS011;7921;43.586;1.408;2022-08-19T12:32:20;3.08;;;1.88;;
15643;SDS011;7921;43.586;1.408;2022-08-19T12:34:46;3.38;;;1.85;;
15643;SDS011;7921;43.586;1.408;2022-08-19T12:37:12;2.22;;;1.90;;
15643;SDS011;7921;43.586;1.408;2022-08-19T12:39:39;2.22;;;2.00;;
15643;SDS011;7921;43.586;1.408;2022-08-19T12:42:06;1.80;;;1.70;;
15643;SDS011;7921;43.586;1.408;2022-08-19T12:44:33;1.90;;;1.80;;
15643;SDS011;7921;43.586;1.408;2022-08-19T12:46:59;2.58;;;1.90;;
15643;SDS011;7921;43.586;1.408;2022-08-19T12:49:26;2.40;;;1.70;;
15643;SDS011;7921;43.586;1.408;2022-08-19T12:51:52;2.30;;;2.10;;
15643;SDS011;7921;43.586;1.408;2022-08-19T12:54:18;2.17;;;2.03;;
15643;SDS011;7921;43.586;1.408;2022-08-19T12:56:43;1.77;;;1.67;;
15643;SDS011;7921;43.586;1.408;2022-08-19T12:59:09;2.25;;;2.05;;
15643;SDS011;7921;43.586;1.408;2022-08-19T13:01:36;2.88;;;2.20;;
15643;SDS011;7921;43.586;1.408;2022-08-19T13:04:01;3.90;;;1.75;;
15643;SDS011;7921;43.586;1.408;2022-08-19T13:06:27;2.55;;;1.98;;
15643;SDS011;7921;43.586;1.408;2022-08-19T13:08:53;2.05;;;1.85;;
15643;SDS011;7921;43.586;1.408;2022-08-19T13:11:19;2.72;;;2.08;;
15643;SDS011;7921;43.586;1.408;2022-08-19T13:13:46;2.00;;;1.70;;
15643;SDS011;7921;43.586;1.408;2022-08-19T13:16:13;2.25;;;2.00;;
15643;SDS011;7921;43.586;1.408;2022-08-19T13:18:39;2.33;;;2.13;;
15643;SDS011;7921;43.586;1.408;2022-08-19T13:21:07;4.53;;;1.98;;
15643;SDS011;7921;43.586;1.408;2022-08-19T13:23:34;2.80;;;1.90;;
15643;SDS011;7921;43.586;1.408;2022-08-19T13:26:01;3.17;;;1.70;;
15643;SDS011;7921;43.586;1.408;2022-08-19T13:28:29;4.95;;;2.10;;
15643;SDS011;7921;43.586;1.408;2022-08-19T13:31:16;3.30;;;1.80;;
15643;SDS011;7921;43.586;1.408;2022-08-19T13:34:01;2.25;;;1.80;;
15643;SDS011;7921;43.586;1.408;2022-08-19T13:36:26;1.55;;;1.45;;
15643;SDS011;7921;43.586;1.408;2022-08-19T13:38:51;2.55;;;1.88;;
15643;SDS011;7921;43.586;1.408;2022-08-19T13:41:17;2.05;;;1.85;;
15643;SDS011;7921;43.586;1.408;2022-08-19T13:43:44;1.90;;;1.80;;
15643;SDS011;7921;43.586;1.408;2022-08-19T13:46:10;1.98;;;1.77;;
15643;SDS011;7921;43.586;1.408;2022-08-19T13:48:39;2.13;;;1.90;;
15643;SDS011;7921;43.586;1.408;2022-08-19T13:51:06;2.00;;;1.70;;
15643;SDS011;7921;43.586;1.408;2022-08-19T13:53:34;2.70;;;1.88;;
15643;SDS011;7921;43.586;1.408;2022-08-19T13:56:04;1.83;;;1.70;;
15643;SDS011;7921;43.586;1.408;2022-08-19T13:58:30;3.05;;;2.08;;
15643;SDS011;7921;43.586;1.408;2022-08-19T14:00:56;2.15;;;1.70;;
15643;SDS011;7921;43.586;1.408;2022-08-19T14:03:22;2.05;;;1.80;;
15643;SDS011;7921;43.586;1.408;2022-08-19T14:05:48;2.17;;;1.80;;
15643;SDS011;7921;43.586;1.408;2022-08-19T14:08:13;1.50;;;1.38;;
15643;SDS011;7921;43.586;1.408;2022-08-19T14:10:39;1.80;;;1.70;;
15643;SDS011;7921;43.586;1.408;2022-08-19T14:13:07;2.53;;;1.90;;
15643;SDS011;7921;43.586;1.408;2022-08-19T14:15:33;2.03;;;1.83;;
15643;SDS011;7921;43.586;1.408;2022-08-19T14:17:59;1.80;;;1.70;;
15643;SDS011;7921;43.586;1.408;2022-08-19T14:20:24;2.10;;;1.85;;
15643;SDS011;7921;43.586;1.408;2022-08-19T14:22:50;1.85;;;1.65;;
15643;SDS011;7921;43.586;1.408;2022-08-19T14:25:17;1.85;;;1.75;;
15643;SDS011;7921;43.586;1.408;2022-08-19T14:27:45;2.17;;;1.95;;
15643;SDS011;7921;43.586;1.408;2022-08-19T14:30:11;1.83;;;1.60;;
15643;SDS011;7921;43.586;1.408;2022-08-19T14:32:40;4.38;;;1.80;;
15643;SDS011;7921;43.586;1.408;2022-08-19T14:35:08;2.22;;;1.77;;
15643;SDS011;7921;43.586;1.408;2022-08-19T14:37:34;3.42;;;1.42;;
15643;SDS011;7921;43.586;1.408;2022-08-19T14:40:00;3.72;;;1.85;;
15643;SDS011;7921;43.586;1.408;2022-08-19T14:42:26;2.40;;;1.70;;
15643;SDS011;7921;43.586;1.408;2022-08-19T14:44:51;1.70;;;1.60;;
15643;SDS011;7921;43.586;1.408;2022-08-19T14:47:16;3.47;;;2.10;;
15643;SDS011;7921;43.586;1.408;2022-08-19T14:49:42;2.03;;;1.77;;
15643;SDS011;7921;43.586;1.408;2022-08-19T14:52:07;2.33;;;1.50;;
15643;SDS011;7921;43.586;1.408;2022-08-19T14:54:33;2.15;;;1.67;;
15643;SDS011;7921;43.586;1.408;2022-08-19T14:56:58;2.33;;;1.83;;
15643;SDS011;7921;43.586;1.408;2022-08-19T14:59:23;3.08;;;1.90;;
15643;SDS011;7921;43.586;1.408;2022-08-19T15:01:49;2.05;;;1.83;;
15643;SDS011;7921;43.586;1.408;2022-08-19T15:04:14;4.80;;;1.80;;
15643;SDS011;7921;43.586;1.408;2022-08-19T15:06:40;2.22;;;1.88;;